Overview Statistics Trail Chart Weather Telemetry Raw packets
 

This is the latest recevied weather packets stored in our database for station/object EA5GTE-12. If no packets are shown the sender has not sent any weather packets the latest 10 day(s).

<< 2 3 4 5 6 7 8 >>
Time Temp. Humidity Pressure Rain* Wind** Luminosity Snow
1788529133 41.11° C 9% 943 hPa - - - -
1788528233 41.11° C 9% 943 hPa - - - -
1788527333 42.22° C 8% 943.2 hPa - - - -
1788526433 42.22° C 9% 943.4 hPa - - - -
1788525532 44.44° C 10% 943.6 hPa - - - -
1788524632 42.78° C 12% 943.8 hPa - - - -
1788523732 41.11° C 13% 944 hPa - - - -
1788522832 41.67° C 15% 944.1 hPa - - - -
1788521932 41.67° C 15% 944.2 hPa - - - -
1788521030 41.11° C 16% 944.4 hPa - - - -
1788520130 38.89° C 19% 944.7 hPa - - - -
1788519230 40.56° C 19% 945 hPa - - - -
1788518330 39.44° C 20% 945.1 hPa - - - -
1788516531 37.22° C 26% 945.3 hPa - - - -
1788515631 36.67° C 30% 945.4 hPa - - - -
1788514731 37.22° C 33% 945.4 hPa - - - -
1788513831 36.67° C 36% 945.6 hPa - - - -
1788512931 32.78° C 48% 945.7 hPa - - - -
1788512031 33.33° C 48% 945.7 hPa - - - -
1788511131 33.33° C 46% 945.7 hPa - - - -
1788510231 31.67° C 54% 945.9 hPa - - - -
1788509331 31.67° C 54% 945.9 hPa - - - -
1788508431 31.67° C 53% 945.9 hPa - - - -
1788507531 29.44° C 59% 946 hPa - - - -
1788506631 26.11° C 67% 946.1 hPa - - - -

* Rain since midnight (hover to see other rain measurements)
** Current wind speed in m/s (hover to see current wind gust speed)